createdAt,value
2018-07-31T00:00:16.910Z,22.38
2018-07-31T00:01:16.908Z,22.32
2018-07-31T00:02:16.907Z,22.38
2018-07-31T00:03:16.906Z,22.39
2018-07-31T00:04:16.904Z,22.41
2018-07-31T00:05:16.903Z,22.43
2018-07-31T00:06:16.902Z,22.44
2018-07-31T00:07:16.900Z,22.36
2018-07-31T00:08:16.898Z,22.33
2018-07-31T00:09:16.896Z,22.39
2018-07-31T00:10:16.895Z,22.33
2018-07-31T00:11:16.897Z,22.30
2018-07-31T00:12:16.891Z,22.29
2018-07-31T00:13:16.890Z,22.25
2018-07-31T00:14:16.889Z,22.17
2018-07-31T00:15:16.887Z,22.13
2018-07-31T00:16:16.886Z,22.04
2018-07-31T00:17:16.884Z,21.99
2018-07-31T00:18:16.882Z,22.00
2018-07-31T00:19:16.881Z,22.06
2018-07-31T00:20:16.878Z,21.91
2018-07-31T00:21:16.878Z,21.89
2018-07-31T00:22:16.876Z,21.91
2018-07-31T00:23:16.874Z,21.92
2018-07-31T00:24:16.872Z,21.95
2018-07-31T00:25:16.870Z,21.85
2018-07-31T00:26:16.868Z,21.83
2018-07-31T00:27:16.868Z,21.80
2018-07-31T00:28:16.865Z,21.66
2018-07-31T00:29:16.866Z,21.67
2018-07-31T00:30:16.862Z,21.64
2018-07-31T00:31:16.860Z,21.64
2018-07-31T00:32:16.858Z,21.79
2018-07-31T00:33:16.856Z,21.69
2018-07-31T00:34:16.872Z,21.70
2018-07-31T00:35:16.852Z,21.66
2018-07-31T00:36:16.851Z,21.72
2018-07-31T00:37:16.849Z,21.64
2018-07-31T00:38:16.847Z,21.66
2018-07-31T00:39:16.845Z,21.64
2018-07-31T00:40:16.842Z,21.67
2018-07-31T00:41:16.842Z,21.66
2018-07-31T00:42:16.839Z,21.69
2018-07-31T00:43:16.842Z,21.64
2018-07-31T00:44:16.835Z,21.70
2018-07-31T00:45:16.833Z,21.61
2018-07-31T00:46:16.832Z,21.62
2018-07-31T00:47:16.830Z,21.61
2018-07-31T00:48:16.829Z,21.69
2018-07-31T00:49:16.825Z,21.69
2018-07-31T00:50:16.826Z,21.57
2018-07-31T00:51:16.823Z,21.57
2018-07-31T00:52:16.819Z,21.52
2018-07-31T00:53:16.817Z,21.51
2018-07-31T00:54:16.815Z,21.46
2018-07-31T00:55:16.814Z,21.52
2018-07-31T00:56:16.811Z,21.48
2018-07-31T00:57:16.809Z,21.51
2018-07-31T00:58:16.807Z,21.46
2018-07-31T00:59:16.805Z,21.33
2018-07-31T01:00:16.803Z,21.29
2018-07-31T01:01:16.801Z,21.35
2018-07-31T01:02:16.805Z,21.25
2018-07-31T01:03:16.798Z,21.32
2018-07-31T01:04:16.794Z,21.27
2018-07-31T01:05:16.793Z,21.36
2018-07-31T01:06:16.794Z,21.29
2018-07-31T01:07:16.789Z,21.37
2018-07-31T01:08:16.786Z,21.36
2018-07-31T01:09:16.784Z,21.35
2018-07-31T01:10:16.784Z,21.35
2018-07-31T01:11:16.781Z,21.37
2018-07-31T01:12:16.777Z,21.36
2018-07-31T01:13:16.776Z,21.32
2018-07-31T01:14:16.780Z,21.32
2018-07-31T01:15:16.773Z,21.33
2018-07-31T01:16:16.769Z,21.35
2018-07-31T01:17:16.766Z,21.40
2018-07-31T01:18:16.765Z,21.32
2018-07-31T01:19:16.763Z,21.30
2018-07-31T01:20:16.760Z,21.39
2018-07-31T01:21:16.758Z,21.36
2018-07-31T01:22:16.756Z,21.32
2018-07-31T01:23:16.754Z,21.24
2018-07-31T01:24:16.750Z,21.30
2018-07-31T01:25:16.749Z,21.22
2018-07-31T01:26:16.748Z,21.30
2018-07-31T01:27:16.744Z,21.25
2018-07-31T01:28:16.741Z,21.25
2018-07-31T01:29:16.741Z,21.21
2018-07-31T01:30:16.737Z,21.18
2018-07-31T01:31:16.734Z,21.11
2018-07-31T01:32:16.731Z,21.18
2018-07-31T01:33:16.729Z,21.17
2018-07-31T01:34:16.728Z,21.11
2018-07-31T01:35:16.725Z,21.05
2018-07-31T01:36:16.725Z,21.03
2018-07-31T01:37:16.720Z,21.02
2018-07-31T01:38:16.717Z,20.99
2018-07-31T01:39:16.714Z,20.96
2018-07-31T01:40:16.711Z,20.88
2018-07-31T01:41:16.709Z,20.92
2018-07-31T01:42:16.706Z,20.88
2018-07-31T01:43:16.704Z,20.96
2018-07-31T01:44:16.700Z,20.99
2018-07-31T01:45:16.699Z,20.84
2018-07-31T01:46:16.696Z,20.87
2018-07-31T01:47:16.694Z,20.85
2018-07-31T01:48:16.692Z,20.82
2018-07-31T01:49:16.688Z,20.80
2018-07-31T01:50:16.684Z,20.84
2018-07-31T01:51:16.682Z,20.84
2018-07-31T01:52:16.679Z,20.90
2018-07-31T01:53:16.678Z,20.90
2018-07-31T01:54:16.673Z,20.88
2018-07-31T01:55:16.671Z,20.84
2018-07-31T01:56:16.667Z,20.99
2018-07-31T01:57:16.666Z,20.90
2018-07-31T01:58:16.663Z,20.90
2018-07-31T01:59:16.660Z,20.92
2018-07-31T02:00:16.656Z,20.92
2018-07-31T02:01:16.653Z,20.90
2018-07-31T02:02:16.650Z,20.90
2018-07-31T02:03:16.647Z,20.85
2018-07-31T02:04:16.644Z,20.90
2018-07-31T02:05:16.641Z,20.87
2018-07-31T02:06:16.682Z,20.85
2018-07-31T02:07:16.636Z,20.85
2018-07-31T02:08:16.633Z,20.90
2018-07-31T02:09:16.631Z,20.82
2018-07-31T02:10:16.629Z,20.82
2018-07-31T02:11:16.626Z,20.80
2018-07-31T02:12:16.625Z,20.85
2018-07-31T02:13:16.625Z,20.87
2018-07-31T02:14:16.617Z,20.88
2018-07-31T02:15:16.615Z,20.90
2018-07-31T02:16:16.611Z,20.92
2018-07-31T02:17:16.635Z,20.88
2018-07-31T02:18:16.608Z,20.80
2018-07-31T02:19:16.606Z,20.87
2018-07-31T02:20:16.600Z,20.81
2018-07-31T02:21:16.598Z,20.95
2018-07-31T02:22:16.595Z,20.87
2018-07-31T02:23:16.592Z,20.87
2018-07-31T02:24:16.589Z,20.78
2018-07-31T02:25:16.586Z,20.88
2018-07-31T02:26:16.583Z,20.85
2018-07-31T02:27:16.581Z,20.88
2018-07-31T02:28:16.717Z,20.87
2018-07-31T02:29:16.575Z,20.82
2018-07-31T02:30:16.572Z,20.82
2018-07-31T02:31:16.576Z,20.69
2018-07-31T02:32:16.566Z,20.80
2018-07-31T02:33:16.563Z,20.77
2018-07-31T02:34:16.561Z,20.72
2018-07-31T02:35:16.558Z,20.78
2018-07-31T02:36:16.556Z,20.74
2018-07-31T02:37:16.552Z,20.75
2018-07-31T02:38:16.549Z,20.74
2018-07-31T02:39:16.546Z,20.72
2018-07-31T02:40:16.543Z,20.74
2018-07-31T02:41:16.540Z,20.72
2018-07-31T02:42:16.538Z,20.78
2018-07-31T02:43:16.535Z,20.72
2018-07-31T02:44:16.531Z,20.74
2018-07-31T02:45:16.535Z,20.74
2018-07-31T02:46:16.528Z,20.70
2018-07-31T02:47:16.529Z,20.70
2018-07-31T02:48:16.520Z,20.63
2018-07-31T02:49:16.518Z,20.63
2018-07-31T02:50:16.515Z,20.60
2018-07-31T02:51:16.512Z,20.56
2018-07-31T02:52:16.508Z,20.52
2018-07-31T02:53:16.506Z,20.56
2018-07-31T02:54:16.504Z,20.50
2018-07-31T02:55:16.501Z,20.56
2018-07-31T02:56:16.497Z,20.55
2018-07-31T02:57:16.496Z,20.65
2018-07-31T02:58:16.599Z,20.63
2018-07-31T02:59:16.489Z,20.65
2018-07-31T03:00:16.486Z,20.58
2018-07-31T03:01:16.485Z,20.59
2018-07-31T03:02:16.487Z,20.62
2018-07-31T03:03:16.479Z,20.67
2018-07-31T03:04:16.474Z,20.63
2018-07-31T03:05:16.474Z,20.59
2018-07-31T03:06:16.517Z,20.58
2018-07-31T03:07:16.467Z,20.59
2018-07-31T03:08:16.578Z,20.59
2018-07-31T03:09:16.462Z,20.60
2018-07-31T03:10:16.461Z,20.52
2018-07-31T03:11:16.456Z,20.50
2018-07-31T03:12:16.452Z,20.43
2018-07-31T03:13:16.450Z,20.36
2018-07-31T03:14:16.446Z,20.22
2018-07-31T03:15:16.444Z,20.16
2018-07-31T03:16:16.439Z,20.11
2018-07-31T03:17:16.437Z,20.11
2018-07-31T03:18:16.435Z,20.03
2018-07-31T03:19:16.431Z,19.99
2018-07-31T03:20:16.428Z,19.95
2018-07-31T03:21:16.424Z,19.94
2018-07-31T03:22:16.421Z,19.88
2018-07-31T03:23:16.421Z,19.91
2018-07-31T03:24:16.413Z,19.89
2018-07-31T03:25:16.410Z,19.86
2018-07-31T03:26:16.407Z,19.91
2018-07-31T03:27:16.404Z,19.92
2018-07-31T03:28:16.417Z,19.95
2018-07-31T03:29:16.396Z,19.96
2018-07-31T03:30:16.393Z,19.94
2018-07-31T03:31:16.392Z,19.92
2018-07-31T03:32:16.386Z,19.89
2018-07-31T03:33:16.384Z,19.94
2018-07-31T03:34:16.380Z,19.92
2018-07-31T03:35:16.379Z,19.92
2018-07-31T03:36:16.372Z,20.06
2018-07-31T03:37:16.369Z,19.96
2018-07-31T03:38:16.365Z,20.02
2018-07-31T03:39:16.362Z,20.02
2018-07-31T03:40:16.358Z,20.04
2018-07-31T03:41:16.355Z,20.04
2018-07-31T03:42:16.352Z,20.02
2018-07-31T03:43:16.349Z,19.96
2018-07-31T03:44:16.345Z,19.96
2018-07-31T03:45:16.344Z,20.02
2018-07-31T03:46:16.341Z,20.00
2018-07-31T03:47:16.336Z,20.00
2018-07-31T03:48:16.332Z,20.06
2018-07-31T03:49:16.334Z,20.07
2018-07-31T03:50:16.326Z,20.02
2018-07-31T03:51:16.323Z,20.06
2018-07-31T03:52:16.319Z,20.03
2018-07-31T03:53:16.317Z,20.00
2018-07-31T03:54:16.313Z,20.03
2018-07-31T03:55:16.309Z,20.00
2018-07-31T03:56:16.316Z,20.02
2018-07-31T03:57:16.303Z,20.02
2018-07-31T03:58:16.300Z,20.04
2018-07-31T03:59:16.297Z,19.96
2018-07-31T04:00:16.295Z,20.02
2018-07-31T04:01:16.291Z,19.91
2018-07-31T04:02:16.288Z,19.91
2018-07-31T04:03:16.285Z,19.92
2018-07-31T04:04:16.281Z,19.88
2018-07-31T04:05:16.281Z,19.92
2018-07-31T04:06:16.280Z,19.95
2018-07-31T04:07:16.272Z,19.86
2018-07-31T04:08:16.269Z,19.92
2018-07-31T04:09:16.267Z,19.92
2018-07-31T04:10:16.264Z,19.88
2018-07-31T04:11:16.261Z,19.89
2018-07-31T04:12:16.257Z,19.91
2018-07-31T04:13:16.257Z,19.92
2018-07-31T04:14:16.252Z,19.94
2018-07-31T04:15:16.249Z,19.88
2018-07-31T04:16:16.245Z,19.86
2018-07-31T04:17:16.323Z,19.95
2018-07-31T04:18:16.240Z,19.89
2018-07-31T04:19:16.240Z,19.91
2018-07-31T04:20:16.233Z,19.86
2018-07-31T04:21:16.231Z,19.86
2018-07-31T04:22:16.228Z,19.92
2018-07-31T04:23:16.225Z,19.85
2018-07-31T04:24:16.221Z,19.91
2018-07-31T04:25:16.219Z,19.92
2018-07-31T04:26:16.216Z,19.99
2018-07-31T04:27:16.213Z,19.96
2018-07-31T04:28:16.209Z,20.03
2018-07-31T04:29:16.207Z,20.02
2018-07-31T04:30:16.204Z,19.94
2018-07-31T04:31:16.201Z,19.94
2018-07-31T04:32:16.197Z,19.92
2018-07-31T04:33:16.194Z,19.94
2018-07-31T04:34:16.194Z,19.99
2018-07-31T04:35:16.190Z,20.04
2018-07-31T04:36:16.205Z,20.00
2018-07-31T04:37:16.183Z,20.00
2018-07-31T04:38:16.179Z,20.13
2018-07-31T04:39:16.176Z,20.19
2018-07-31T04:40:16.173Z,20.22
2018-07-31T04:41:16.236Z,20.28
2018-07-31T04:42:16.195Z,20.29
2018-07-31T04:43:16.164Z,20.29
2018-07-31T04:44:16.160Z,20.43
2018-07-31T04:45:16.158Z,20.50
2018-07-31T04:46:16.155Z,20.51
2018-07-31T04:47:16.153Z,20.62
2018-07-31T04:48:16.150Z,20.66
2018-07-31T04:49:16.146Z,20.78
2018-07-31T04:50:16.220Z,20.74
2018-07-31T04:51:16.142Z,20.85
2018-07-31T04:52:16.139Z,20.90
2018-07-31T04:53:16.136Z,20.81
2018-07-31T04:54:16.134Z,20.93
2018-07-31T04:55:16.132Z,21.00
2018-07-31T04:56:16.130Z,20.99
2018-07-31T04:57:16.127Z,21.05
2018-07-31T04:58:16.125Z,21.14
2018-07-31T04:59:16.123Z,21.17
2018-07-31T05:00:16.120Z,21.22
2018-07-31T05:01:16.118Z,21.27
2018-07-31T05:02:16.117Z,21.25
2018-07-31T05:03:16.116Z,21.32
2018-07-31T05:04:16.160Z,21.43
2018-07-31T05:05:16.109Z,21.43
2018-07-31T05:06:16.108Z,21.55
2018-07-31T05:07:16.106Z,21.54
2018-07-31T05:08:16.103Z,21.62
2018-07-31T05:09:16.102Z,21.79
2018-07-31T05:10:16.100Z,21.79
2018-07-31T05:11:16.099Z,21.92
2018-07-31T05:12:16.101Z,21.83
2018-07-31T05:13:16.095Z,21.88
2018-07-31T05:14:16.093Z,21.95
2018-07-31T05:15:16.092Z,22.02
2018-07-31T05:16:16.090Z,22.14
2018-07-31T05:17:16.089Z,22.11
2018-07-31T05:18:16.138Z,22.13
2018-07-31T05:19:16.086Z,22.25
2018-07-31T05:20:16.084Z,22.30
2018-07-31T05:21:16.083Z,22.39
2018-07-31T05:22:16.081Z,22.44
2018-07-31T05:23:16.080Z,22.44
2018-07-31T05:24:16.080Z,22.43
2018-07-31T05:25:16.092Z,22.47
2018-07-31T05:26:16.082Z,22.50
2018-07-31T05:27:16.076Z,22.60
2018-07-31T05:28:16.073Z,22.65
2018-07-31T05:29:16.073Z,22.63
2018-07-31T05:30:16.072Z,22.65
2018-07-31T05:31:16.071Z,22.66
2018-07-31T05:32:16.069Z,22.62
2018-07-31T05:33:16.068Z,22.62
2018-07-31T05:34:16.067Z,22.62
2018-07-31T05:35:16.069Z,22.54
2018-07-31T05:36:16.064Z,22.57
2018-07-31T05:37:16.064Z,22.63
2018-07-31T05:38:16.063Z,22.63
2018-07-31T05:39:16.061Z,22.60
2018-07-31T05:40:16.061Z,22.66
2018-07-31T05:41:16.058Z,22.70
2018-07-31T05:42:16.058Z,22.70
2018-07-31T05:43:16.057Z,22.76
2018-07-31T05:44:16.055Z,22.80
2018-07-31T05:45:16.054Z,22.93
2018-07-31T05:46:16.087Z,23.02
2018-07-31T05:47:16.053Z,23.18
2018-07-31T05:48:16.050Z,23.31
2018-07-31T05:49:16.050Z,23.21
2018-07-31T05:50:16.049Z,23.37
2018-07-31T05:51:16.049Z,23.47
2018-07-31T05:52:16.048Z,23.54
2018-07-31T05:53:16.047Z,23.61
2018-07-31T05:54:16.047Z,23.68
2018-07-31T05:55:16.047Z,23.74
2018-07-31T05:56:16.045Z,23.80
2018-07-31T05:57:16.045Z,23.86
2018-07-31T05:58:16.047Z,23.74
2018-07-31T05:59:16.044Z,23.83
2018-07-31T06:00:16.045Z,23.87
2018-07-31T06:01:16.044Z,23.86
2018-07-31T06:02:16.043Z,23.83
2018-07-31T06:03:16.044Z,23.73
2018-07-31T06:04:16.044Z,23.69
2018-07-31T06:05:16.053Z,23.71
2018-07-31T06:06:16.042Z,23.78
2018-07-31T06:07:16.047Z,23.78
2018-07-31T06:08:16.041Z,23.86
2018-07-31T06:09:16.046Z,23.84
2018-07-31T06:10:16.041Z,23.95
2018-07-31T06:11:16.071Z,24.01
2018-07-31T06:12:16.039Z,24.10
2018-07-31T06:13:16.040Z,24.20
2018-07-31T06:14:16.040Z,24.14
2018-07-31T06:15:16.077Z,24.20
2018-07-31T06:16:16.039Z,24.30
2018-07-31T06:17:16.039Z,24.39
2018-07-31T06:18:16.039Z,24.38
2018-07-31T06:19:16.040Z,24.40
2018-07-31T06:20:16.038Z,24.45
2018-07-31T06:21:16.038Z,24.48
2018-07-31T06:22:16.038Z,24.51
2018-07-31T06:23:16.039Z,24.60
2018-07-31T06:24:16.038Z,24.63
2018-07-31T06:25:16.038Z,24.55
2018-07-31T06:26:16.038Z,24.80
2018-07-31T06:27:16.039Z,24.93
2018-07-31T06:28:16.038Z,25.08
2018-07-31T06:29:16.038Z,25.22
2018-07-31T06:30:16.039Z,25.23
2018-07-31T06:31:16.040Z,25.35
2018-07-31T06:32:16.039Z,25.50
2018-07-31T06:33:16.040Z,25.44
2018-07-31T06:34:16.041Z,25.54
2018-07-31T06:35:16.042Z,25.48
2018-07-31T06:36:16.041Z,25.48
2018-07-31T06:37:16.042Z,25.63
2018-07-31T06:38:16.044Z,25.66
2018-07-31T06:39:16.046Z,25.78
2018-07-31T06:40:16.045Z,25.77
2018-07-31T06:41:16.057Z,25.78
2018-07-31T06:42:16.047Z,25.80
2018-07-31T06:43:16.049Z,25.88
2018-07-31T06:44:16.049Z,26.00
2018-07-31T06:45:16.050Z,26.13
2018-07-31T06:46:16.051Z,26.23
2018-07-31T06:47:16.053Z,26.47
2018-07-31T06:48:16.054Z,26.48
2018-07-31T06:49:16.069Z,26.53
2018-07-31T06:50:16.060Z,26.56
2018-07-31T06:51:16.060Z,26.55
2018-07-31T06:52:16.064Z,26.68
2018-07-31T06:53:16.063Z,26.77
2018-07-31T06:54:16.065Z,26.85
2018-07-31T06:55:16.067Z,26.85
2018-07-31T06:56:16.069Z,26.88
2018-07-31T06:57:16.073Z,27.05
2018-07-31T06:58:16.073Z,27.15
2018-07-31T06:59:16.076Z,27.12
2018-07-31T07:00:16.077Z,27.08
2018-07-31T07:01:16.080Z,27.08
2018-07-31T07:02:16.083Z,27.05
2018-07-31T07:03:16.086Z,27.02
2018-07-31T07:04:16.088Z,27.00
2018-07-31T07:05:16.090Z,27.12
2018-07-31T07:06:16.092Z,27.08
2018-07-31T07:07:16.095Z,26.99
2018-07-31T07:08:16.097Z,26.90
2018-07-31T07:09:16.155Z,26.83
2018-07-31T07:10:16.102Z,26.75
2018-07-31T07:11:16.105Z,26.71
2018-07-31T07:12:16.107Z,26.65
2018-07-31T07:13:16.110Z,26.62
2018-07-31T07:14:16.111Z,26.56
2018-07-31T07:15:16.115Z,26.58
2018-07-31T07:16:16.116Z,26.58
2018-07-31T07:17:16.121Z,26.55
2018-07-31T07:18:16.120Z,26.62
2018-07-31T07:19:16.123Z,26.74
2018-07-31T07:20:16.128Z,26.77
2018-07-31T07:21:16.127Z,26.88
2018-07-31T07:22:16.130Z,26.90
2018-07-31T07:23:16.134Z,27.02
2018-07-31T07:24:16.135Z,26.99
2018-07-31T07:25:16.142Z,26.90
2018-07-31T07:26:16.141Z,27.12
2018-07-31T07:27:16.144Z,27.32
2018-07-31T07:28:16.146Z,27.48
2018-07-31T07:29:16.150Z,27.70
2018-07-31T07:30:16.156Z,27.89
2018-07-31T07:31:16.162Z,28.05
2018-07-31T07:32:16.165Z,28.02
2018-07-31T07:33:16.171Z,28.01
2018-07-31T07:34:16.177Z,27.92
2018-07-31T07:35:16.183Z,27.75
2018-07-31T07:36:16.189Z,27.86
2018-07-31T07:37:16.200Z,27.93
2018-07-31T07:38:16.208Z,28.14
2018-07-31T07:39:16.211Z,28.29
2018-07-31T07:40:16.233Z,28.59
2018-07-31T07:41:16.226Z,28.69
2018-07-31T07:42:16.234Z,28.76
2018-07-31T07:43:16.243Z,28.94
2018-07-31T07:44:16.252Z,28.93
2018-07-31T07:45:16.261Z,29.07
2018-07-31T07:46:16.271Z,29.20
2018-07-31T07:47:16.281Z,29.36
2018-07-31T07:48:16.295Z,29.49
2018-07-31T07:49:16.300Z,29.41
2018-07-31T07:50:16.311Z,29.45
2018-07-31T07:51:16.322Z,29.61
2018-07-31T07:52:16.332Z,29.78
2018-07-31T07:53:16.345Z,30.00
2018-07-31T07:54:16.427Z,29.88
2018-07-31T07:55:16.367Z,29.75
2018-07-31T07:56:16.377Z,29.54
2018-07-31T07:57:16.389Z,29.23
2018-07-31T07:58:16.401Z,29.22
2018-07-31T07:59:16.414Z,29.42
2018-07-31T08:00:16.423Z,29.34
2018-07-31T08:01:16.435Z,29.36
2018-07-31T08:02:16.446Z,29.29
2018-07-31T08:03:16.460Z,29.22
2018-07-31T08:04:16.469Z,29.02
2018-07-31T08:05:16.480Z,28.93
2018-07-31T08:06:16.490Z,28.89
2018-07-31T08:07:16.500Z,28.88
2018-07-31T08:08:16.510Z,28.81
2018-07-31T08:09:16.520Z,28.52
2018-07-31T08:10:16.530Z,28.42
2018-07-31T08:11:16.538Z,28.41
2018-07-31T08:12:16.547Z,28.30
2018-07-31T08:13:16.556Z,28.60
2018-07-31T08:14:16.565Z,28.81
2018-07-31T08:15:16.575Z,28.93
2018-07-31T08:16:16.583Z,29.10
2018-07-31T08:17:16.592Z,29.38
2018-07-31T08:18:16.602Z,29.69
2018-07-31T08:19:16.612Z,30.05
2018-07-31T08:20:16.626Z,30.18
2018-07-31T08:21:16.633Z,30.16
2018-07-31T08:22:16.644Z,29.75
2018-07-31T08:23:16.654Z,29.56
2018-07-31T08:24:16.663Z,29.60
2018-07-31T08:25:16.688Z,29.66
2018-07-31T08:26:16.683Z,29.65
2018-07-31T08:27:16.693Z,29.71
2018-07-31T08:28:16.701Z,29.69
2018-07-31T08:29:16.711Z,29.41
2018-07-31T08:30:16.721Z,29.42
2018-07-31T08:31:16.732Z,29.44
2018-07-31T08:32:16.737Z,29.54
2018-07-31T08:33:16.745Z,29.22
2018-07-31T08:34:16.754Z,29.20
2018-07-31T08:35:16.762Z,29.27
2018-07-31T08:36:16.770Z,29.24
2018-07-31T08:37:16.780Z,29.24
2018-07-31T08:38:16.786Z,28.98
2018-07-31T08:39:16.794Z,28.97
2018-07-31T08:40:16.801Z,28.86
2018-07-31T08:41:16.819Z,28.91
2018-07-31T08:42:16.816Z,28.97
2018-07-31T08:43:16.824Z,29.04
2018-07-31T08:44:16.830Z,28.93
2018-07-31T08:45:16.837Z,28.64
2018-07-31T08:46:16.844Z,28.64
2018-07-31T08:47:16.851Z,28.63
2018-07-31T08:48:16.856Z,28.64
2018-07-31T08:49:16.863Z,28.38
2018-07-31T08:50:16.869Z,28.38
2018-07-31T08:51:16.885Z,28.44
2018-07-31T08:52:16.883Z,28.38
2018-07-31T08:53:16.886Z,28.42
2018-07-31T08:54:16.891Z,28.35
2018-07-31T08:55:16.897Z,28.22
2018-07-31T08:56:16.902Z,28.27
2018-07-31T08:57:16.907Z,28.25
2018-07-31T08:58:16.912Z,28.27
2018-07-31T08:59:16.917Z,28.38
2018-07-31T09:00:16.921Z,28.38
2018-07-31T09:01:16.926Z,28.49
2018-07-31T09:02:16.934Z,28.41
2018-07-31T09:03:16.937Z,28.39
2018-07-31T09:04:16.942Z,28.62
2018-07-31T09:05:16.947Z,28.62
2018-07-31T09:06:16.953Z,28.66
2018-07-31T09:07:16.960Z,28.74
2018-07-31T09:08:17.016Z,28.88
2018-07-31T09:09:16.972Z,29.01
2018-07-31T09:10:16.978Z,29.22
2018-07-31T09:11:16.985Z,29.22
2018-07-31T09:12:16.992Z,29.22
2018-07-31T09:13:16.999Z,29.36
2018-07-31T09:14:17.006Z,29.53
2018-07-31T09:15:17.013Z,29.91
2018-07-31T09:16:17.020Z,30.15
2018-07-31T09:17:17.029Z,30.37
2018-07-31T09:18:17.039Z,30.59
2018-07-31T09:19:17.049Z,30.72
2018-07-31T09:20:17.058Z,30.81
2018-07-31T09:21:17.069Z,31.05
2018-07-31T09:22:17.095Z,31.03
2018-07-31T09:23:17.092Z,31.17
2018-07-31T09:24:17.152Z,31.27
2018-07-31T09:25:17.116Z,31.22
2018-07-31T09:26:17.130Z,31.36
2018-07-31T09:27:17.141Z,31.69
2018-07-31T09:28:17.153Z,31.93
2018-07-31T09:29:17.168Z,31.81
2018-07-31T09:30:17.218Z,31.81
2018-07-31T09:31:17.196Z,31.81
2018-07-31T09:32:17.211Z,31.87
2018-07-31T09:33:17.224Z,31.54
2018-07-31T09:34:17.242Z,31.58
2018-07-31T09:35:17.252Z,31.43
2018-07-31T09:36:17.265Z,31.24
2018-07-31T09:37:17.279Z,30.84
2018-07-31T09:38:17.292Z,30.85
2018-07-31T09:39:17.306Z,30.83
2018-07-31T09:40:17.318Z,30.84
2018-07-31T09:41:17.332Z,30.91
2018-07-31T09:42:17.346Z,30.90
2018-07-31T09:43:17.362Z,30.92
2018-07-31T09:44:17.373Z,30.83
2018-07-31T09:45:17.387Z,30.90
2018-07-31T09:46:17.401Z,30.97
2018-07-31T09:47:17.415Z,30.92
2018-07-31T09:48:17.427Z,31.27
2018-07-31T09:49:17.442Z,31.36
2018-07-31T09:50:17.456Z,31.29
2018-07-31T09:51:17.471Z,31.28
2018-07-31T09:52:17.484Z,31.25
2018-07-31T09:53:17.499Z,31.39
2018-07-31T09:54:17.513Z,31.28
2018-07-31T09:55:17.528Z,31.55
2018-07-31T09:56:17.542Z,31.37
2018-07-31T09:57:17.615Z,31.54
2018-07-31T09:58:17.571Z,31.55
2018-07-31T09:59:17.586Z,31.52
2018-07-31T10:00:17.600Z,31.29
2018-07-31T10:01:17.615Z,31.36
2018-07-31T10:02:17.629Z,31.61
2018-07-31T10:03:17.644Z,31.64
2018-07-31T10:04:17.660Z,31.89
2018-07-31T10:05:17.693Z,31.78
2018-07-31T10:06:17.696Z,31.94
2018-07-31T10:07:17.703Z,32.16
2018-07-31T10:08:17.717Z,31.80
2018-07-31T10:09:17.734Z,31.55
2018-07-31T10:10:17.746Z,31.69
2018-07-31T10:11:17.761Z,31.51
2018-07-31T10:12:17.776Z,31.14
2018-07-31T10:13:17.790Z,31.10
2018-07-31T10:14:17.805Z,31.27
2018-07-31T10:15:17.820Z,31.44
2018-07-31T10:16:17.833Z,31.94
2018-07-31T10:17:17.848Z,31.85
2018-07-31T10:18:17.889Z,32.11
2018-07-31T10:19:17.878Z,32.30
2018-07-31T10:20:17.892Z,31.94
2018-07-31T10:21:17.908Z,31.77
2018-07-31T10:22:17.922Z,31.62
2018-07-31T10:23:17.936Z,31.59
2018-07-31T10:24:18.028Z,31.71
2018-07-31T10:25:17.965Z,31.92
2018-07-31T10:26:17.980Z,31.99
2018-07-31T10:27:17.995Z,31.73
2018-07-31T10:28:18.009Z,31.66
2018-07-31T10:29:18.024Z,31.66
2018-07-31T10:30:18.039Z,32.12
2018-07-31T10:31:18.054Z,32.15
2018-07-31T10:32:18.068Z,32.31
2018-07-31T10:33:18.083Z,32.38
2018-07-31T10:34:18.098Z,32.22
2018-07-31T10:35:18.113Z,32.19
2018-07-31T10:36:18.127Z,32.18
2018-07-31T10:37:18.143Z,32.21
2018-07-31T10:38:18.158Z,32.01
2018-07-31T10:39:18.174Z,32.14
2018-07-31T10:40:18.187Z,32.19
2018-07-31T10:41:18.208Z,32.12
2018-07-31T10:42:18.219Z,32.30
2018-07-31T10:43:18.234Z,32.40
2018-07-31T10:44:18.248Z,32.08
2018-07-31T10:45:18.264Z,31.71
2018-07-31T10:46:18.376Z,31.46
2018-07-31T10:47:18.290Z,31.29
2018-07-31T10:48:18.304Z,31.24
2018-07-31T10:49:18.314Z,31.52
2018-07-31T10:50:18.328Z,32.14
2018-07-31T10:51:18.340Z,31.96
2018-07-31T10:52:18.351Z,31.69
2018-07-31T10:53:18.363Z,31.34
2018-07-31T10:54:18.375Z,30.83
2018-07-31T10:55:18.386Z,30.51
2018-07-31T10:56:18.396Z,30.55
2018-07-31T10:57:18.406Z,30.47
2018-07-31T10:58:18.434Z,30.43
2018-07-31T10:59:18.426Z,30.27
2018-07-31T11:00:18.475Z,30.08
2018-07-31T11:01:18.445Z,29.97
2018-07-31T11:02:18.454Z,30.09
2018-07-31T11:03:18.464Z,30.25
2018-07-31T11:04:18.582Z,30.66
2018-07-31T11:05:18.484Z,31.09
2018-07-31T11:06:18.501Z,31.56
2018-07-31T11:07:18.504Z,31.70
2018-07-31T11:08:18.514Z,31.17
2018-07-31T11:09:18.525Z,30.62
2018-07-31T11:10:18.569Z,30.61
2018-07-31T11:11:18.547Z,30.40
2018-07-31T11:12:18.555Z,30.50
2018-07-31T11:13:18.621Z,30.68
2018-07-31T11:14:18.573Z,30.72
2018-07-31T11:15:18.582Z,30.40
2018-07-31T11:16:18.591Z,30.16
2018-07-31T11:17:18.600Z,30.09
2018-07-31T11:18:18.608Z,30.30
2018-07-31T11:19:18.618Z,30.68
2018-07-31T11:20:18.626Z,30.94
2018-07-31T11:21:18.737Z,31.22
2018-07-31T11:22:18.646Z,31.20
2018-07-31T11:23:18.656Z,30.84
2018-07-31T11:24:18.664Z,30.54
2018-07-31T11:25:18.674Z,30.88
2018-07-31T11:26:18.683Z,31.15
2018-07-31T11:27:18.693Z,31.42
2018-07-31T11:28:18.702Z,31.40
2018-07-31T11:29:18.713Z,31.31
2018-07-31T11:30:18.722Z,31.18
2018-07-31T11:31:18.732Z,31.25
2018-07-31T11:32:18.740Z,31.20
2018-07-31T11:33:18.751Z,30.94
2018-07-31T11:34:18.759Z,30.94
2018-07-31T11:35:18.769Z,30.84
2018-07-31T11:36:18.776Z,30.72
2018-07-31T11:37:18.788Z,30.31
2018-07-31T11:38:18.794Z,30.24
2018-07-31T11:39:18.802Z,30.30
2018-07-31T11:40:18.809Z,30.32
2018-07-31T11:41:18.863Z,29.94
2018-07-31T11:42:18.825Z,29.69
2018-07-31T11:43:18.833Z,29.63
2018-07-31T11:44:18.840Z,29.60
2018-07-31T11:45:18.852Z,29.97
2018-07-31T11:46:18.857Z,30.32
2018-07-31T11:47:18.868Z,30.48
2018-07-31T11:48:18.873Z,30.44
2018-07-31T11:49:18.882Z,30.30
2018-07-31T11:50:18.897Z,30.68
2018-07-31T11:51:18.903Z,30.97
2018-07-31T11:52:18.907Z,31.25
2018-07-31T11:53:18.917Z,31.36
2018-07-31T11:54:18.927Z,31.80
2018-07-31T11:55:18.937Z,31.93
2018-07-31T11:56:18.946Z,32.11
2018-07-31T11:57:18.957Z,32.18
2018-07-31T11:58:18.969Z,32.16
2018-07-31T11:59:18.980Z,32.16
2018-07-31T12:00:18.990Z,32.12
2018-07-31T12:01:19.002Z,32.12
2018-07-31T12:02:19.013Z,32.19
2018-07-31T12:03:19.042Z,32.14
2018-07-31T12:04:19.086Z,31.70
2018-07-31T12:05:19.049Z,31.61
2018-07-31T12:06:19.061Z,31.37
2018-07-31T12:07:19.067Z,31.44
2018-07-31T12:08:19.077Z,31.33
2018-07-31T12:09:19.087Z,31.49
2018-07-31T12:10:19.099Z,31.80
2018-07-31T12:11:19.110Z,32.34
2018-07-31T12:12:19.118Z,32.73
2018-07-31T12:13:19.131Z,32.77
2018-07-31T12:14:19.141Z,33.02
2018-07-31T12:15:19.154Z,33.23
2018-07-31T12:16:19.166Z,33.30
2018-07-31T12:17:19.178Z,33.07
2018-07-31T12:18:19.192Z,32.90
2018-07-31T12:19:19.210Z,32.71
2018-07-31T12:20:19.217Z,32.71
2018-07-31T12:21:19.235Z,32.85
2018-07-31T12:22:19.243Z,33.05
2018-07-31T12:23:19.256Z,32.89
2018-07-31T12:24:19.267Z,32.60
2018-07-31T12:25:19.280Z,32.68
2018-07-31T12:26:19.297Z,32.49
2018-07-31T12:27:19.312Z,32.63
2018-07-31T12:28:19.317Z,32.43
2018-07-31T12:29:19.332Z,32.59
2018-07-31T12:30:19.342Z,32.87
2018-07-31T12:31:19.354Z,33.19
2018-07-31T12:32:19.365Z,33.53
2018-07-31T12:33:19.384Z,33.40
2018-07-31T12:34:19.390Z,33.65
2018-07-31T12:35:19.403Z,33.83
2018-07-31T12:36:19.415Z,33.76
2018-07-31T12:37:19.428Z,33.81
2018-07-31T12:38:19.532Z,34.29
2018-07-31T12:39:19.454Z,34.66
2018-07-31T12:40:19.466Z,34.62
2018-07-31T12:41:19.480Z,34.20
2018-07-31T12:42:19.493Z,34.30
2018-07-31T12:43:19.507Z,34.43
2018-07-31T12:44:19.520Z,34.45
2018-07-31T12:45:19.533Z,34.24
2018-07-31T12:46:19.548Z,34.23
2018-07-31T12:47:19.561Z,34.23
2018-07-31T12:48:19.574Z,34.13
2018-07-31T12:49:19.588Z,34.21
2018-07-31T12:50:19.601Z,34.35
2018-07-31T12:51:19.614Z,34.73
2018-07-31T12:52:19.627Z,34.95